This is the latest recevied weather packets stored in our database for station/object DC4XK-10. If no packets are shown the sender has not sent any weather packets the latest 1 day(s).
| Time | Temp. | Humidity | Pressure | Rain* | Wind** | Luminosity | Snow |
|---|---|---|---|---|---|---|---|
| 1777990130 | 17.22° C | 52% | 1009.4 hPa | 0 mm | 0 m/s | - | - |
| 1777989531 | 16.11° C | 53% | 1009.5 hPa | 0 mm | 1.79 m/s, 148° | - | - |
| 1777988931 | 16.67° C | 53% | 1009.4 hPa | 0 mm | 0 m/s | - | - |
| 1777988331 | 15.56° C | 57% | 1009.5 hPa | 0 mm | 0 m/s | - | - |
| 1777987730 | 15° C | 58% | 1009.5 hPa | 0 mm | 0 m/s | - | - |
| 1777987131 | 15° C | 59% | 1009.6 hPa | 0 mm | 0.45 m/s, 59° | - | - |
| 1777986531 | 14.44° C | 62% | 1009.6 hPa | 0 mm | 1.79 m/s, 343° | - | - |
| 1777985931 | 14.44° C | 63% | 1009.8 hPa | 0 mm | 0 m/s | - | - |
| 1777985332 | 13.89° C | 64% | 1009.7 hPa | 0 mm | 0 m/s | - | - |
| 1777984731 | 14.44° C | 63% | 1009.8 hPa | 0 mm | 1.79 m/s, 332° | - | - |
| 1777984130 | 13.89° C | 64% | 1009.8 hPa | 0 mm | 0.89 m/s, 65° | - | - |
| 1777983533 | 14.44° C | 64% | 1009.8 hPa | 0 mm | 0 m/s | - | - |
| 1777982930 | 14.44° C | 65% | 1009.8 hPa | 0 mm | 0 m/s | - | - |
| 1777982331 | 13.89° C | 66% | 1009.7 hPa | 0 mm | 0.89 m/s, 341° | - | - |
| 1777981734 | 13.89° C | 65% | 1009.8 hPa | 0 mm | 0.45 m/s, 341° | - | - |
| 1777981130 | 14.44° C | 65% | 1009.7 hPa | 0 mm | 0.45 m/s, 33° | - | - |
| 1777980531 | 14.44° C | 67% | 1009.7 hPa | 0 mm | 0 m/s | - | - |
| 1777979931 | 15° C | 65% | 1009.9 hPa | 0 mm | 1.34 m/s, 69° | - | - |
| 1777979331 | 13.89° C | 66% | 1010 hPa | 0 mm | 0.45 m/s, 40° | - | - |
| 1777978731 | 15.56° C | 64% | 1009.9 hPa | 0 mm | 0.89 m/s, 16° | - | - |
| 1777978130 | 14.44° C | 68% | 1009.9 hPa | 0 mm | 0 m/s | - | - |
| 1777977531 | 15° C | 66% | 1010.1 hPa | 0 mm | 0.45 m/s, 83° | - | - |
| 1777976930 | 15.56° C | 66% | 1009.9 hPa | 0 mm | 0 m/s | - | - |
| 1777976330 | 15° C | 64% | 1010 hPa | 0 mm | 0 m/s | - | - |
| 1777975731 | 13.89° C | 69% | 1010.1 hPa | 0 mm | 1.34 m/s, 349° | - | - |
* Rain latest hour (hover to see other rain measurements)
** Current wind speed in m/s (hover to see current wind gust speed)